McKinney's Hourly Summary for Saturday, July 7, 2018
Hour Temp
(f)
RH
(%)
Solar Rad.
(MJ/m2)
Rainfall
(in)
Wind
(mph)
7/7/2018 12:00 AM 76 82 0 0 0.53
7/7/2018 1:00 AM 75 82 0 0 0.53
7/7/2018 2:00 AM 75 84 0 0 0.47
7/7/2018 3:00 AM 73 91 0 0 0.23
7/7/2018 4:00 AM 72 98 0.01 0 0.57
7/7/2018 5:00 AM 71 99 0.01 0 0.3
7/7/2018 6:00 AM 71 99 0.01 0 1.08
7/7/2018 7:00 AM 71 99 0.06 0 0.63
7/7/2018 8:00 AM 73 86 0.51 0 0.79
7/7/2018 9:00 AM 77 75 1.13 0 2.02
7/7/2018 10:00 AM 80 68 1.75 0 2.93
7/7/2018 11:00 AM 83 62 2.29 0 3.9
7/7/2018 12:00 PM 86 56 2.69 0 3
7/7/2018 1:00 PM 88 52 2.32 0 3.2
7/7/2018 2:00 PM 90 46 2.92 0 3.65
7/7/2018 3:00 PM 92 42 2.97 0 4.21
7/7/2018 4:00 PM 93 41 2.66 0 3.67
7/7/2018 5:00 PM 93 39 2.09 0 3.79
7/7/2018 6:00 PM 90 44 1.18 0 4.55
7/7/2018 7:00 PM 90 48 0.83 0 3.03
7/7/2018 8:00 PM 89 47 0.35 0 2.65
7/7/2018 9:00 PM 86 51 0.03 0 1.54
7/7/2018 10:00 PM 83 60 0 0 2.61
7/7/2018 11:00 PM 80 62 0 0 0.88
Data Summary 81 67 23.81 0.00 2.12